createdAt,value
2023-04-18T00:00:12.124Z,35.17
2023-04-18T00:02:40.964Z,113.20
2023-04-18T00:05:08.873Z,39.93
2023-04-18T00:07:36.502Z,65.53
2023-04-18T00:10:05.308Z,189.97
2023-04-18T00:12:34.195Z,75.17
2023-04-18T00:15:02.448Z,116.97
2023-04-18T00:17:31.782Z,142.37
2023-04-18T00:20:02.232Z,177.40
2023-04-18T00:22:29.686Z,176.50
2023-04-18T00:24:57.010Z,113.10
2023-04-18T00:27:24.390Z,199.63
2023-04-18T00:29:51.886Z,249.03
2023-04-18T00:32:19.668Z,277.27
2023-04-18T00:34:48.439Z,166.27
2023-04-18T00:37:16.237Z,235.53
2023-04-18T00:39:43.647Z,240.97
2023-04-18T00:42:11.010Z,178.57
2023-04-18T00:44:38.554Z,310.30
2023-04-18T00:47:05.934Z,187.90
2023-04-18T00:49:33.543Z,137.07
2023-04-18T00:52:02.253Z,192.23
2023-04-18T00:54:29.867Z,331.53
2023-04-18T00:56:57.255Z,129.87
2023-04-18T00:59:24.675Z,192.07
2023-04-18T01:01:52.208Z,102.93
2023-04-18T01:04:19.982Z,215.60
2023-04-18T01:06:47.691Z,291.60
2023-04-18T01:09:16.455Z,123.93
2023-04-18T01:11:45.396Z,140.83
2023-04-18T01:14:13.014Z,224.07
2023-04-18T01:16:40.725Z,278.17
2023-04-18T01:19:08.387Z,394.80
2023-04-18T01:21:37.044Z,193.53
2023-04-18T01:24:10.647Z,233.03
2023-04-18T01:26:38.222Z,123.87
2023-04-18T01:29:06.306Z,207.87
2023-04-18T01:31:34.851Z,182.63
2023-04-18T01:34:02.237Z,142.27
2023-04-18T01:36:29.607Z,122.67
2023-04-18T01:38:57.097Z,62.20
2023-04-18T01:41:25.859Z,113.23
2023-04-18T01:43:53.197Z,96.60
2023-04-18T01:46:20.633Z,201.37
2023-04-18T01:48:47.997Z,126.73
2023-04-18T01:51:15.984Z,134.27
2023-04-18T01:53:43.386Z,64.17
2023-04-18T01:56:11.053Z,40.90
2023-04-18T01:58:41.529Z,212.37
2023-04-18T02:01:09.333Z,117.13
2023-04-18T02:03:36.980Z,110.53
2023-04-18T02:06:05.291Z,48.80
2023-04-18T02:08:35.527Z,47.67
2023-04-18T02:11:05.504Z,43.50
2023-04-18T02:13:33.058Z,43.63
2023-04-18T02:16:01.856Z,41.20
2023-04-18T02:18:30.530Z,71.90
2023-04-18T02:20:57.878Z,57.73
2023-04-18T02:23:25.218Z,48.17
2023-04-18T02:25:53.466Z,41.80
2023-04-18T02:28:20.800Z,52.30
2023-04-18T02:30:48.168Z,49.20
2023-04-18T02:33:17.108Z,40.33
2023-04-18T02:35:45.452Z,39.73
2023-04-18T02:38:13.766Z,39.43
2023-04-18T02:40:41.713Z,45.03
2023-04-18T02:43:09.052Z,38.97
2023-04-18T02:45:36.568Z,48.53
2023-04-18T02:48:04.082Z,41.30
2023-04-18T02:50:35.450Z,43.77
2023-04-18T02:53:03.323Z,45.97
2023-04-18T02:55:42.543Z,45.33
2023-04-18T02:58:10.046Z,41.37
2023-04-18T03:01:00.817Z,37.70
2023-04-18T03:03:48.880Z,40.77
2023-04-18T03:06:34.533Z,42.10
2023-04-18T03:09:03.636Z,44.23
2023-04-18T03:11:33.701Z,48.67
2023-04-18T03:14:01.239Z,41.73
2023-04-18T03:16:35.824Z,42.57
2023-04-18T03:19:05.436Z,42.90
2023-04-18T03:21:35.550Z,42.60
2023-04-18T03:24:03.042Z,39.63
2023-04-18T03:26:30.837Z,41.23
2023-04-18T03:28:58.575Z,43.53
2023-04-18T03:31:26.181Z,41.30
2023-04-18T03:33:56.034Z,44.80
2023-04-18T03:36:25.279Z,38.27
2023-04-18T03:38:55.930Z,45.70
2023-04-18T03:41:24.792Z,44.93
2023-04-18T03:43:52.358Z,47.53
2023-04-18T03:46:21.857Z,40.30
2023-04-18T03:48:52.015Z,44.87
2023-04-18T03:51:19.724Z,47.43
2023-04-18T03:53:47.353Z,45.43
2023-04-18T03:56:16.106Z,42.50
2023-04-18T03:58:50.312Z,95.23
2023-04-18T04:01:19.109Z,108.40
2023-04-18T04:03:46.900Z,88.60
2023-04-18T04:06:14.946Z,53.83
2023-04-18T04:08:42.405Z,66.87
2023-04-18T04:11:10.154Z,74.70
2023-04-18T04:13:40.452Z,102.80
2023-04-18T04:16:08.267Z,85.20
2023-04-18T04:18:36.830Z,70.10
2023-04-18T04:21:04.352Z,89.63
2023-04-18T04:23:42.232Z,53.77
2023-04-18T04:26:12.140Z,75.57
2023-04-18T04:28:48.713Z,75.43
2023-04-18T04:31:22.173Z,92.23
2023-04-18T04:33:51.228Z,76.73
2023-04-18T04:36:22.989Z,70.70
2023-04-18T04:38:52.240Z,70.93
2023-04-18T04:41:27.670Z,58.57
2023-04-18T04:43:56.867Z,106.60
2023-04-18T04:46:30.318Z,81.60
2023-04-18T04:48:59.057Z,146.70
2023-04-18T04:51:28.089Z,128.37
2023-04-18T04:53:55.744Z,181.10
2023-04-18T04:56:23.870Z,95.37
2023-04-18T04:58:51.511Z,108.80
2023-04-18T05:01:25.022Z,92.33
2023-04-18T05:03:52.887Z,129.60
2023-04-18T05:06:22.377Z,140.47
2023-04-18T05:08:49.769Z,127.30
2023-04-18T05:11:17.466Z,195.70
2023-04-18T05:13:44.828Z,142.90
2023-04-18T05:16:12.474Z,117.70
2023-04-18T05:18:41.514Z,115.43
2023-04-18T05:21:08.894Z,136.73
2023-04-18T05:23:37.226Z,148.07
2023-04-18T05:26:04.989Z,168.63
2023-04-18T05:28:32.459Z,165.80
2023-04-18T05:31:02.054Z,160.70
2023-04-18T05:33:29.543Z,183.43
2023-04-18T05:35:58.708Z,104.13
2023-04-18T05:38:26.187Z,122.10
2023-04-18T05:40:55.556Z,183.10
2023-04-18T05:43:23.194Z,137.47
2023-04-18T05:45:52.101Z,147.03
2023-04-18T05:48:19.541Z,50.33
2023-04-18T05:50:46.985Z,112.30
2023-04-18T05:53:15.856Z,128.27
2023-04-18T05:55:43.220Z,103.63
2023-04-18T05:58:10.599Z,119.57
2023-04-18T06:00:38.191Z,135.07
2023-04-18T06:03:07.180Z,125.80
2023-04-18T06:05:36.135Z,129.47
2023-04-18T06:08:04.087Z,82.87
2023-04-18T06:10:32.757Z,72.63
2023-04-18T06:13:00.238Z,96.13
2023-04-18T06:15:27.577Z,63.53
2023-04-18T06:17:55.071Z,116.63
2023-04-18T06:20:23.073Z,101.23
2023-04-18T06:22:50.419Z,131.80
2023-04-18T06:25:18.004Z,138.40
2023-04-18T06:27:46.750Z,187.37
2023-04-18T06:30:14.991Z,183.33
2023-04-18T06:32:43.413Z,128.50
2023-04-18T06:35:10.951Z,216.07
2023-04-18T06:37:38.325Z,147.60
2023-04-18T06:40:06.092Z,113.43
2023-04-18T06:42:33.452Z,90.23
2023-04-18T06:45:03.391Z,111.43
2023-04-18T06:47:32.328Z,114.50
2023-04-18T06:49:59.973Z,92.23
2023-04-18T06:52:27.325Z,68.53
2023-04-18T06:54:54.662Z,75.03
2023-04-18T06:57:22.105Z,67.50
2023-04-18T06:59:49.479Z,118.70
2023-04-18T07:02:18.416Z,77.33
2023-04-18T07:04:46.025Z,74.70
2023-04-18T07:07:13.403Z,79.07
2023-04-18T07:09:40.776Z,82.70
2023-04-18T07:12:08.346Z,166.90
2023-04-18T07:14:35.680Z,95.57
2023-04-18T07:17:03.131Z,34.33
2023-04-18T07:19:32.102Z,66.20
2023-04-18T07:21:59.475Z,195.13
2023-04-18T07:24:27.006Z,132.37
2023-04-18T07:26:55.163Z,148.40
2023-04-18T07:29:22.809Z,164.40
2023-04-18T07:31:50.364Z,119.43
2023-04-18T07:34:18.038Z,136.87
2023-04-18T07:36:46.912Z,156.87
2023-04-18T07:39:14.324Z,109.07
2023-04-18T07:41:41.698Z,143.77
2023-04-18T07:44:09.047Z,197.53
2023-04-18T07:46:36.569Z,173.33
2023-04-18T07:49:04.588Z,106.87
2023-04-18T07:51:32.342Z,101.40
2023-04-18T07:54:01.125Z,95.63
2023-04-18T07:56:28.557Z,72.33
2023-04-18T07:58:55.937Z,108.80
2023-04-18T08:01:24.655Z,68.53
2023-04-18T08:03:53.610Z,103.87
2023-04-18T08:06:21.403Z,57.07
2023-04-18T08:08:48.804Z,100.60
2023-04-18T08:11:17.502Z,61.27
2023-04-18T08:13:44.983Z,103.43
2023-04-18T08:16:13.170Z,102.93
2023-04-18T08:18:42.173Z,81.30
2023-04-18T08:21:09.522Z,164.63
2023-04-18T08:23:36.904Z,52.87
2023-04-18T08:26:04.259Z,37.53
2023-04-18T08:28:33.244Z,42.70
2023-04-18T08:31:00.666Z,37.43
2023-04-18T08:33:29.243Z,31.90
2023-04-18T08:35:56.654Z,31.30
2023-04-18T08:38:24.037Z,54.37
2023-04-18T08:40:51.408Z,51.93
2023-04-18T08:43:18.992Z,72.70
2023-04-18T08:45:48.342Z,44.60
2023-04-18T08:48:16.278Z,44.97
2023-04-18T08:50:44.359Z,35.97
2023-04-18T08:53:12.019Z,44.40
2023-04-18T08:55:40.494Z,47.10
2023-04-18T08:58:08.055Z,47.57
2023-04-18T09:00:35.489Z,44.53
2023-04-18T09:03:04.511Z,25.27
2023-04-18T09:05:32.363Z,37.53
2023-04-18T09:07:59.704Z,35.50
2023-04-18T09:10:30.900Z,47.07
2023-04-18T09:12:58.905Z,43.13
2023-04-18T09:15:29.109Z,28.20
2023-04-18T09:17:57.873Z,32.17
2023-04-18T09:20:34.411Z,29.90
2023-04-18T09:23:02.587Z,28.33
2023-04-18T09:25:34.377Z,38.73
2023-04-18T09:28:02.239Z,31.53
2023-04-18T09:30:30.720Z,26.90
2023-04-18T09:32:58.334Z,33.10
2023-04-18T09:35:26.656Z,34.83
2023-04-18T09:37:55.499Z,32.07
2023-04-18T09:40:23.887Z,29.80
2023-04-18T09:42:51.836Z,26.20
2023-04-18T09:45:19.267Z,31.80
2023-04-18T09:47:46.635Z,30.60
2023-04-18T09:50:16.480Z,30.43
2023-04-18T09:52:44.383Z,28.83
2023-04-18T09:55:14.261Z,30.80
2023-04-18T09:57:43.376Z,28.47
2023-04-18T10:00:14.001Z,26.03
2023-04-18T10:02:47.281Z,23.37
2023-04-18T10:05:15.241Z,27.50
2023-04-18T10:07:44.691Z,27.50
2023-04-18T10:10:13.458Z,26.97
2023-04-18T10:12:41.552Z,28.30
2023-04-18T10:15:09.944Z,30.77
2023-04-18T10:17:52.506Z,27.40
2023-04-18T10:20:28.542Z,25.57
2023-04-18T10:22:56.393Z,28.97
2023-04-18T10:25:42.235Z,28.73
2023-04-18T10:28:10.982Z,28.43
2023-04-18T10:30:52.456Z,27.27
2023-04-18T10:33:31.148Z,28.50
2023-04-18T10:36:01.171Z,34.80
2023-04-18T10:38:28.953Z,29.27
2023-04-18T10:41:11.239Z,30.53
2023-04-18T10:43:53.532Z,27.40
2023-04-18T10:46:31.894Z,29.10
2023-04-18T10:49:16.837Z,29.43
2023-04-18T10:51:45.182Z,29.10
2023-04-18T10:54:13.976Z,30.03
2023-04-18T10:56:41.689Z,30.40
2023-04-18T10:59:10.395Z,27.00
2023-04-18T11:01:40.725Z,32.67
2023-04-18T11:04:11.964Z,27.07
2023-04-18T11:06:47.816Z,33.50
2023-04-18T11:09:15.608Z,24.80
2023-04-18T11:11:43.949Z,31.10
2023-04-18T11:14:11.935Z,34.23
2023-04-18T11:16:40.755Z,31.63
2023-04-18T11:19:21.067Z,36.20
2023-04-18T11:21:48.467Z,33.97
2023-04-18T11:24:22.491Z,36.50
2023-04-18T11:26:49.850Z,33.63
2023-04-18T11:29:18.074Z,29.93
2023-04-18T11:31:52.445Z,30.53
2023-04-18T11:34:20.337Z,33.70
2023-04-18T11:36:49.824Z,30.07
2023-04-18T11:39:17.218Z,30.97
2023-04-18T11:41:50.305Z,29.07
2023-04-18T11:44:18.443Z,30.17
2023-04-18T11:46:45.909Z,28.57
2023-04-18T11:49:28.264Z,29.63
2023-04-18T11:51:55.865Z,30.83
2023-04-18T11:54:39.446Z,32.60
2023-04-18T11:57:07.187Z,34.83
2023-04-18T11:59:34.847Z,30.70
2023-04-18T12:02:15.455Z,31.80
2023-04-18T12:04:56.037Z,31.67
2023-04-18T12:07:37.452Z,33.70
2023-04-18T12:10:06.032Z,34.83
2023-04-18T12:12:33.601Z,33.47
2023-04-18T12:15:01.979Z,33.93
2023-04-18T12:17:29.851Z,28.07
2023-04-18T12:20:01.966Z,30.00
2023-04-18T12:22:39.922Z,27.63
2023-04-18T12:25:20.247Z,30.87
2023-04-18T12:27:48.242Z,30.20
2023-04-18T12:30:15.725Z,30.50
2023-04-18T12:32:44.836Z,34.67
2023-04-18T12:35:14.061Z,26.70
2023-04-18T12:37:41.591Z,27.47
2023-04-18T12:40:10.779Z,29.17
2023-04-18T12:42:38.176Z,27.20
2023-04-18T12:45:07.682Z,31.37
2023-04-18T12:47:35.612Z,26.70
2023-04-18T12:50:03.061Z,29.30
2023-04-18T12:52:31.749Z,28.93
2023-04-18T12:54:59.196Z,29.97
2023-04-18T12:57:26.891Z,30.03
2023-04-18T12:59:54.240Z,27.03
2023-04-18T13:02:21.831Z,24.07
2023-04-18T13:04:51.273Z,32.67
2023-04-18T13:07:18.695Z,31.00
2023-04-18T13:09:47.454Z,35.73
2023-04-18T13:12:14.996Z,27.30
2023-04-18T13:14:42.860Z,33.47
2023-04-18T13:17:13.010Z,29.63
2023-04-18T13:19:40.402Z,31.80
2023-04-18T13:22:07.988Z,35.83
2023-04-18T13:24:36.937Z,39.10
2023-04-18T13:27:10.318Z,34.43
2023-04-18T13:29:38.514Z,37.07
2023-04-18T13:32:06.012Z,33.93
2023-04-18T13:34:35.203Z,31.93
2023-04-18T13:37:02.573Z,28.00
2023-04-18T13:39:32.132Z,27.93
2023-04-18T13:41:59.555Z,29.87
2023-04-18T13:44:30.818Z,28.23
2023-04-18T13:46:58.378Z,26.90
2023-04-18T13:49:25.743Z,32.83
2023-04-18T13:51:57.006Z,30.17
2023-04-18T13:54:24.522Z,26.83
2023-04-18T13:56:51.890Z,25.60
2023-04-18T13:59:19.248Z,27.97
2023-04-18T14:01:49.113Z,28.60
2023-04-18T14:04:16.776Z,31.07
2023-04-18T14:06:44.645Z,29.63
2023-04-18T14:09:12.798Z,30.50
2023-04-18T14:11:40.657Z,29.43
2023-04-18T14:14:08.006Z,29.60
2023-04-18T14:16:35.467Z,30.87
2023-04-18T14:19:04.409Z,29.60
2023-04-18T14:21:32.068Z,26.60
2023-04-18T14:23:59.437Z,26.90
2023-04-18T14:26:26.836Z,29.13
2023-04-18T14:28:54.240Z,26.80
2023-04-18T14:31:22.559Z,24.87
2023-04-18T14:33:50.219Z,25.77
2023-04-18T14:36:19.354Z,27.97
2023-04-18T14:38:47.997Z,22.67
2023-04-18T14:41:15.655Z,23.50
2023-04-18T14:43:43.042Z,31.67
2023-04-18T14:46:14.084Z,26.53
2023-04-18T14:48:41.576Z,26.40
2023-04-18T14:51:09.017Z,27.97
2023-04-18T14:53:37.688Z,30.50
2023-04-18T14:56:05.258Z,26.00
2023-04-18T14:58:34.105Z,30.40
2023-04-18T15:01:02.212Z,24.93
2023-04-18T15:03:29.794Z,29.13
2023-04-18T15:05:57.484Z,28.13
2023-04-18T15:08:24.901Z,27.43
2023-04-18T15:10:53.634Z,28.03
2023-04-18T15:13:21.118Z,28.73
2023-04-18T15:15:54.901Z,21.10
2023-04-18T15:18:22.482Z,23.87
2023-04-18T15:20:49.979Z,26.40
2023-04-18T15:23:17.338Z,24.43
2023-04-18T15:25:45.503Z,23.80
2023-04-18T15:28:14.444Z,25.57
2023-04-18T15:30:42.133Z,27.63
2023-04-18T15:33:09.592Z,25.80
2023-04-18T15:35:36.971Z,24.03
2023-04-18T15:38:04.343Z,25.77
2023-04-18T15:40:32.891Z,26.07
2023-04-18T15:43:00.453Z,25.17
2023-04-18T15:45:30.545Z,25.33
2023-04-18T15:47:58.311Z,26.70
2023-04-18T15:50:25.979Z,25.23
2023-04-18T15:52:53.416Z,27.00
2023-04-18T15:55:22.335Z,23.60
2023-04-18T15:57:49.731Z,24.27
2023-04-18T16:00:17.578Z,23.13
2023-04-18T16:02:48.967Z,23.47
2023-04-18T16:05:17.401Z,19.37
2023-04-18T16:07:44.848Z,22.23
2023-04-18T16:10:13.028Z,21.97
2023-04-18T16:12:40.697Z,20.87
2023-04-18T16:15:09.402Z,22.73
2023-04-18T16:17:36.916Z,25.20
2023-04-18T16:20:08.336Z,22.67
2023-04-18T16:22:35.725Z,25.37
2023-04-18T16:25:03.567Z,29.40
2023-04-18T16:27:31.592Z,28.23
2023-04-18T16:29:58.985Z,29.40
2023-04-18T16:32:26.402Z,29.70
2023-04-18T16:34:53.785Z,24.73
2023-04-18T16:37:22.466Z,29.33
2023-04-18T16:39:49.845Z,27.90
2023-04-18T16:42:17.232Z,35.53
2023-04-18T16:44:45.113Z,32.07
2023-04-18T16:47:12.488Z,31.53
2023-04-18T16:49:40.544Z,32.63
2023-04-18T16:52:07.885Z,37.37
2023-04-18T16:54:36.575Z,33.87
2023-04-18T16:57:04.668Z,35.17
2023-04-18T16:59:32.060Z,29.70
2023-04-18T17:01:59.841Z,34.30
2023-04-18T17:04:28.931Z,35.27
2023-04-18T17:06:56.559Z,35.57
2023-04-18T17:09:25.220Z,37.00
2023-04-18T17:11:53.901Z,34.57
2023-04-18T17:14:21.486Z,32.27
2023-04-18T17:16:50.171Z,33.73
2023-04-18T17:19:19.553Z,32.63
2023-04-18T17:21:47.030Z,33.13
2023-04-18T17:24:14.368Z,35.20
2023-04-18T17:26:41.731Z,39.10
2023-04-18T17:29:10.413Z,32.13
2023-04-18T17:31:37.848Z,29.30
2023-04-18T17:34:05.799Z,35.67
2023-04-18T17:36:33.142Z,33.80
2023-04-18T17:39:06.105Z,33.40
2023-04-18T17:41:36.095Z,38.30
2023-04-18T17:44:03.479Z,35.47
2023-04-18T17:46:32.875Z,35.00
2023-04-18T17:49:00.488Z,36.70
2023-04-18T17:51:28.166Z,35.83
2023-04-18T17:53:55.987Z,35.60
2023-04-18T17:56:23.812Z,35.03
2023-04-18T17:58:51.411Z,32.80
2023-04-18T18:01:19.597Z,30.40
2023-04-18T18:03:48.755Z,31.80
2023-04-18T18:06:16.384Z,31.57
2023-04-18T18:08:44.025Z,28.00
2023-04-18T18:11:11.710Z,32.47
2023-04-18T18:13:39.794Z,26.90
2023-04-18T18:16:08.709Z,29.60
2023-04-18T18:18:36.828Z,26.37
2023-04-18T18:21:05.696Z,30.17
2023-04-18T18:23:33.358Z,32.23
2023-04-18T18:26:01.016Z,28.23
2023-04-18T18:28:28.773Z,29.33
2023-04-18T18:30:56.147Z,26.53
2023-04-18T18:33:23.538Z,26.70
2023-04-18T18:35:51.017Z,28.80
2023-04-18T18:38:19.898Z,27.50
2023-04-18T18:40:47.330Z,27.20
2023-04-18T18:43:14.684Z,28.40
2023-04-18T18:45:42.051Z,24.30
2023-04-18T18:52:05.276Z,20.37
2023-04-18T18:54:41.780Z,25.67
2023-04-18T18:57:09.351Z,29.37
2023-04-18T18:59:36.722Z,22.03
2023-04-18T19:02:04.971Z,23.47
2023-04-18T19:04:32.984Z,26.60
2023-04-18T19:07:00.512Z,30.97
2023-04-18T19:09:27.844Z,24.93
2023-04-18T19:11:56.966Z,24.93
2023-04-18T19:14:24.458Z,24.93
2023-04-18T19:16:51.792Z,25.30
2023-04-18T19:19:19.159Z,23.13
2023-04-18T19:21:46.606Z,26.10
2023-04-18T19:24:14.066Z,24.37
2023-04-18T19:26:41.786Z,27.07
2023-04-18T19:29:11.548Z,26.67
2023-04-18T19:31:38.990Z,29.37
2023-04-18T19:34:06.666Z,25.73
2023-04-18T19:36:34.015Z,23.00
2023-04-18T19:39:01.410Z,25.60
2023-04-18T19:41:28.775Z,24.77
2023-04-18T19:43:56.240Z,27.43
2023-04-18T19:46:26.059Z,28.43
2023-04-18T19:48:53.735Z,30.00
2023-04-18T19:51:21.108Z,27.83
2023-04-18T19:53:48.518Z,28.47
2023-04-18T19:56:15.948Z,27.03
2023-04-18T19:58:46.097Z,33.23
2023-04-18T20:01:13.789Z,25.23
2023-04-18T20:03:42.863Z,25.47
2023-04-18T20:06:10.539Z,28.33
2023-04-18T20:08:39.394Z,24.73
2023-04-18T20:11:07.720Z,27.47
2023-04-18T20:13:36.598Z,25.70
2023-04-18T20:16:03.984Z,24.87
2023-04-18T20:18:32.002Z,23.53
2023-04-18T20:21:00.674Z,26.70
2023-04-18T20:23:31.329Z,25.67
2023-04-18T20:25:58.831Z,24.50
2023-04-18T20:28:26.655Z,22.80
2023-04-18T20:30:54.104Z,24.23
2023-04-18T20:33:21.595Z,21.83
2023-04-18T20:35:49.099Z,21.53
2023-04-18T20:38:20.064Z,22.60
2023-04-18T20:40:48.846Z,23.77
2023-04-18T20:43:17.306Z,23.23
2023-04-18T20:45:45.866Z,25.63
2023-04-18T20:48:13.245Z,24.60
2023-04-18T20:50:40.963Z,25.47
2023-04-18T20:53:08.305Z,24.87
2023-04-18T20:55:37.036Z,24.33
2023-04-18T20:58:04.397Z,21.47
2023-04-18T21:00:31.864Z,24.57
2023-04-18T21:02:59.488Z,25.03
2023-04-18T21:05:26.910Z,23.07
2023-04-18T21:07:54.264Z,26.70
2023-04-18T21:10:21.593Z,25.07
2023-04-18T21:12:50.345Z,23.03
2023-04-18T21:15:17.994Z,22.43
2023-04-18T21:17:45.374Z,23.37
2023-04-18T21:20:12.699Z,23.37
2023-04-18T21:22:40.055Z,26.37
2023-04-18T21:25:08.080Z,27.33
2023-04-18T21:27:35.525Z,26.60
2023-04-18T21:30:05.109Z,24.90
2023-04-18T21:32:32.600Z,26.17
2023-04-18T21:35:00.565Z,23.83
2023-04-18T21:37:27.920Z,22.50
2023-04-18T21:39:55.247Z,24.20
2023-04-18T21:42:22.602Z,22.23
2023-04-18T21:44:49.943Z,23.43
2023-04-18T21:47:18.607Z,26.03
2023-04-18T21:49:45.982Z,23.60
2023-04-18T21:52:13.430Z,22.77
2023-04-18T21:54:41.798Z,25.30
2023-04-18T21:57:09.408Z,24.10
2023-04-18T21:59:36.848Z,25.10
2023-04-18T22:02:04.852Z,20.97
2023-04-18T22:04:33.762Z,22.50
2023-04-18T22:07:01.408Z,22.80
2023-04-18T22:09:29.428Z,23.93
2023-04-18T22:11:57.480Z,22.57
2023-04-18T22:14:25.939Z,19.53
2023-04-18T22:16:53.961Z,26.27
2023-04-18T22:19:21.409Z,26.50
2023-04-18T22:21:50.180Z,24.23
2023-04-18T22:24:18.290Z,24.90
2023-04-18T22:26:45.646Z,26.57
2023-04-18T22:29:12.990Z,21.73
2023-04-18T22:31:42.595Z,22.23
2023-04-18T22:34:09.966Z,24.43
2023-04-18T22:36:37.542Z,24.60
2023-04-18T22:39:06.250Z,26.00
2023-04-18T22:41:33.578Z,18.30
2023-04-18T22:44:00.928Z,24.37
2023-04-18T22:46:28.757Z,23.03
2023-04-18T22:48:57.128Z,18.57
2023-04-18T22:51:24.586Z,20.33
2023-04-18T22:53:52.280Z,21.83
2023-04-18T22:56:21.008Z,21.10
2023-04-18T22:58:48.339Z,23.00
2023-04-18T23:01:15.752Z,21.13
2023-04-18T23:03:43.338Z,23.60
2023-04-18T23:06:10.970Z,22.77
2023-04-18T23:08:38.350Z,21.23
2023-04-18T23:11:05.696Z,22.70
2023-04-18T23:13:34.930Z,22.30
2023-04-18T23:16:02.357Z,18.10
2023-04-18T23:18:30.053Z,19.30
2023-04-18T23:20:57.405Z,20.13
2023-04-18T23:23:24.920Z,21.20
2023-04-18T23:25:52.978Z,20.43
2023-04-18T23:28:20.315Z,22.67
2023-04-18T23:30:50.152Z,21.07
2023-04-18T23:33:17.505Z,20.67
2023-04-18T23:35:45.057Z,17.33
2023-04-18T23:38:12.392Z,18.17
2023-04-18T23:40:39.762Z,18.13
2023-04-18T23:43:07.118Z,22.10
2023-04-18T23:45:34.477Z,18.67
2023-04-18T23:48:03.205Z,16.83
2023-04-18T23:50:30.548Z,16.63
2023-04-18T23:52:58.256Z,18.90
2023-04-18T23:55:25.575Z,17.10
2023-04-18T23:57:52.915Z,17.03
